Latest Flight | Flight Log | Data Trends | Login | Join FlightData.com!
Date Range From To
Export:
Flight Log - N60454 - Click on row to view flight. Click on header to sort.
Date Origin Dest Depart Arrive Hobbs Flight Time Flight Distance Fuel Fuel/hr Fuel/nm Altitude Gnd Speed
Fri, Apr 20, 2018 EDTD EDTD 14:21 14:21 0 hrs 0.00 hrs 0.00 nm 24.10 gal 14460.00 gal/hr 0.00 gal/nm 0 msl 0 kts
Fri, Apr 20, 2018 EDTD EDTD 08:17 10:35 2.27 hrs 2.05 hrs 346.48 nm 34.20 gal 15.08 gal/hr 0.10 gal/nm 0 msl 167 kts
Fri, Apr 20, 2018 EDTD EDTD 07:49 07:51 0.04 hrs 0.00 hrs 0.00 nm 0.10 gal 2.86 gal/hr 0.00 gal/nm 0 msl 0 kts
Fri, Oct 20, 2017 EHBK EDTD 12:39 14:21 1.69 hrs 1.49 hrs 246.93 nm 24.10 gal 14.30 gal/hr 0.10 gal/nm 0 msl 164 kts
Fri, Oct 20, 2017     12:36 12:37 0.02 hrs 0.00 hrs 0.00 nm 0.00 gal 0.00 gal/hr 0.00 gal/nm 0 msl 0 kts
Thu, Oct 19, 2017 EDTD EDTD 14:13 14:13 0 hrs 0.00 hrs 0.00 nm 27.00 gal 16200.00 gal/hr 0.00 gal/nm 0 msl 0 kts
Thu, Oct 19, 2017 EDTD EHBK 12:05 13:48 1.7 hrs 1.44 hrs 241.41 nm 21.60 gal 12.69 gal/hr 0.09 gal/nm 0 msl 166 kts
Thu, Oct 19, 2017 EDTD EDTD 11:40 11:42 0.04 hrs 0.00 hrs 0.00 nm 0.10 gal 2.86 gal/hr 0.00 gal/nm 0 msl 0 kts
Mon, Oct 9, 2017 LFMV EDTD 12:03 14:13 2.15 hrs 1.98 hrs 310.22 nm 27.00 gal 12.55 gal/hr 0.09 gal/nm 0 msl 156 kts
Mon, Oct 9, 2017     11:38 11:39 0.02 hrs 0.00 hrs 0.00 nm 0.00 gal 0.00 gal/hr 0.00 gal/nm 0 msl 0 kts
Mon, Oct 9, 2017 LESB LFMV 09:12 11:22 2.15 hrs 2.03 hrs 309.45 nm 27.50 gal 12.78 gal/hr 0.09 gal/nm 0 msl 151 kts
Mon, Oct 9, 2017 LESB LESB 08:55 09:08 0.22 hrs 0.05 hrs 5.30 nm 1.30 gal 5.95 gal/hr 0.25 gal/nm 0 msl 104 kts
Mon, Oct 9, 2017 LESB LESB 08:47 08:49 0.04 hrs 0.00 hrs 0.00 nm 0.00 gal 0.00 gal/hr 0.00 gal/nm 0 msl 0 kts
Sat, Oct 7, 2017 EDTD EDTD 14:20 14:20 0 hrs 0.00 hrs 0.00 nm 31.30 gal 18780.00 gal/hr 0.00 gal/nm 0 msl 0 kts
Sat, Oct 7, 2017 EDTD EDTD 14:20 14:20 0 hrs 0.00 hrs 0.00 nm 31.30 gal 18780.00 gal/hr 0.00 gal/nm 0 msl 0 kts
Sat, Oct 7, 2017 LFMV LESB 10:19 12:24 2.09 hrs 1.84 hrs 298.25 nm 25.20 gal 12.09 gal/hr 0.08 gal/nm 0 msl 161 kts
Sat, Oct 7, 2017 LFMV LFMV 09:50 09:53 0.05 hrs 0.00 hrs 0.00 nm 0.00 gal 0.00 gal/hr 0.00 gal/nm 0 msl 0 kts
Sat, Oct 7, 2017 EDTD LFMV 07:27 09:32 2.07 hrs 1.84 hrs 318.10 nm 26.90 gal 13.01 gal/hr 0.08 gal/nm 0 msl 172 kts
Sat, Oct 7, 2017 EDTD EDTD 07:08 07:11 0.05 hrs 0.00 hrs 0.00 nm 0.20 gal 3.87 gal/hr 0.00 gal/nm 0 msl 0 kts
Sun, Sep 10, 2017 LOWG EDTD 12:00 14:20 2.3 hrs 2.12 hrs 348.78 nm 31.30 gal 13.60 gal/hr 0.09 gal/nm 0 msl 164 kts
Sun, Sep 10, 2017 LOWG LOWG 11:53 11:54 0.04 hrs 0.00 hrs 0.00 nm 0.00 gal 0.00 gal/hr 0.00 gal/nm 0 msl 0 kts
Sun, Sep 10, 2017 LGKR LOWG 07:31 10:54 3.35 hrs 3.08 hrs 527.12 nm 41.10 gal 12.26 gal/hr 0.08 gal/nm 0 msl 171 kts
Sun, Sep 10, 2017 LGKR LGKR 07:04 07:08 0.07 hrs 0.00 hrs 0.00 nm 0.00 gal 0.00 gal/hr 0.00 gal/nm 0 msl 0 kts
Fri, Sep 8, 2017 EDTD EDTD 17:01 17:01 0 hrs 0.00 hrs 0.00 nm 0.00 gal 0.00 gal/hr 0.00 gal/nm 0 msl 0 kts
Fri, Sep 8, 2017 LIRZ LGKR 15:44 18:53 3.14 hrs 2.89 hrs 458.93 nm 39.20 gal 12.50 gal/hr 0.09 gal/nm 0 msl 158 kts
Fri, Sep 8, 2017 LIRZ LIRZ 15:39 15:41 0.04 hrs 0.00 hrs 0.00 nm 0.00 gal 0.00 gal/hr 0.00 gal/nm 0 msl 0 kts
Fri, Sep 8, 2017 LIRZ LIRZ 15:25 15:27 0.04 hrs 0.00 hrs 0.00 nm 0.00 gal 0.00 gal/hr 0.00 gal/nm 0 msl 0 kts
Fri, Sep 8, 2017 EDTD LIRZ 11:55 14:41 2.72 hrs 2.48 hrs 392.87 nm 33.60 gal 12.36 gal/hr 0.09 gal/nm 0 msl 158 kts
Fri, Sep 8, 2017 EDTD EDTD 10:50 10:53 0.05 hrs 0.00 hrs 0.00 nm 0.10 gal 1.94 gal/hr 0.00 gal/nm 0 msl 0 kts
Fri, Sep 8, 2017     10:31 10:33 0.04 hrs 0.00 hrs 0.00 nm 0.00 gal 0.00 gal/hr 0.00 gal/nm 0 msl 0 kts
Fri, Sep 1, 2017 EDTD EDTD 17:01 17:01 0 hrs 0.00 hrs 0.00 nm 0.00 gal 0.00 gal/hr 0.00 gal/nm 0 msl 0 kts
Fri, Sep 1, 2017 EDTD EDTD 17:01 17:01 0 hrs 0.00 hrs 0.00 nm 0.00 gal 0.00 gal/hr 0.00 gal/nm 0 msl 0 kts
Fri, Sep 1, 2017 EHBK EDTD 15:25 17:01 1.59 hrs 1.44 hrs 244.32 nm 6.70 gal 4.23 gal/hr 0.03 gal/nm 0 msl 168 kts
Fri, Sep 1, 2017 EHBK EHBK 15:15 15:24 0.15 hrs 0.00 hrs 0.00 nm 0.00 gal 0.00 gal/hr 0.00 gal/nm 0 msl 0 kts
Fri, Sep 1, 2017 EDTD EHBK 07:05 08:49 1.7 hrs 1.51 hrs 243.06 nm 22.20 gal 13.05 gal/hr 0.09 gal/nm 0 msl 160 kts
Fri, Sep 1, 2017     06:51 06:51 0.02 hrs 0.00 hrs 0.00 nm 0.10 gal 5.45 gal/hr 0.00 gal/nm 0 msl 0 kts
Fri, Sep 1, 2017 EDTD EDTD 06:47 06:49 0.04 hrs 0.00 hrs 0.00 nm 0.00 gal 0.00 gal/hr 0.00 gal/nm 0 msl 0 kts
Tue, Aug 29, 2017 LFMV EDTD 10:25 12:37 2.17 hrs 1.87 hrs 314.15 nm 26.90 gal 12.41 gal/hr 0.09 gal/nm 0 msl 167 kts
Tue, Aug 29, 2017 LFMV LFMV 10:21 10:23 0.04 hrs 0.00 hrs 0.00 nm 0.00 gal 0.00 gal/hr 0.00 gal/nm 0 msl 0 kts
Tue, Aug 29, 2017 LFMV LFMV 10:15 10:16 0.04 hrs 0.00 hrs 0.00 nm 0.00 gal 0.00 gal/hr 0.00 gal/nm 0 msl 0 kts
Tue, Aug 29, 2017 LFKC LFMV 08:02 09:37 1.57 hrs 1.43 hrs 217.38 nm 20.70 gal 13.20 gal/hr 0.10 gal/nm 0 msl 152 kts
Tue, Aug 29, 2017 LFKC LFKC 07:58 08:00 0.05 hrs 0.00 hrs 0.00 nm 0.00 gal 0.00 gal/hr 0.00 gal/nm 0 msl 0 kts
Tue, Aug 29, 2017 LFKC LFKC 07:47 07:49 0.04 hrs 0.00 hrs 0.00 nm 0.00 gal 0.00 gal/hr 0.00 gal/nm 0 msl 0 kts
Sun, Aug 27, 2017 LFMV LFKC 10:01 11:47 1.74 hrs 1.45 hrs 225.28 nm 21.00 gal 12.10 gal/hr 0.09 gal/nm 0 msl 154 kts
Sun, Aug 27, 2017 LFMV LFMV 09:58 10:00 0.04 hrs 0.00 hrs 0.00 nm 0.00 gal 0.00 gal/hr 0.00 gal/nm 0 msl 0 kts
Sun, Aug 27, 2017 LFMV LFMV 09:45 09:48 0.05 hrs 0.00 hrs 0.00 nm 0.00 gal 0.00 gal/hr 0.00 gal/nm 0 msl 0 kts
Sat, Aug 26, 2017     09:25 09:25 0 hrs 0.00 hrs 0.00 nm 0.00 gal 0.00 gal/hr 0.00 gal/nm 0 msl 0 kts
Sat, Aug 26, 2017 EDTD LFMV 07:00 09:47 2.35 hrs 2.13 hrs 309.23 nm 30.10 gal 12.80 gal/hr 0.10 gal/nm 0 msl 145 kts
Sat, Aug 26, 2017     06:45 06:46 0.02 hrs 0.00 hrs 0.00 nm 0.10 gal 5.45 gal/hr 0.00 gal/nm 0 msl 0 kts
Sat, Aug 26, 2017     06:31 06:32 0.02 hrs 0.00 hrs 0.00 nm 0.00 gal 0.00 gal/hr 0.00 gal/nm 0 msl 0 kts
Sun, Jul 30, 2017     09:23 09:25 0.04 hrs 0.00 hrs 0.00 nm 0.00 gal 0.00 gal/hr 0.00 gal/nm 0 msl 0 kts
Sun, Jul 30, 2017 EDMA EDTD 07:27 08:27 1 hrs 0.76 hrs 105.12 nm 12.60 gal 12.58 gal/hr 0.12 gal/nm 0 msl 138 kts
Sun, Jul 30, 2017     07:22 07:23 0.02 hrs 0.00 hrs 0.00 nm 0.00 gal 0.00 gal/hr 0.00 gal/nm 0 msl 0 kts
Fri, Jul 28, 2017 EDMA EDMA 12:31 12:45 0.24 hrs 0.00 hrs 0.00 nm 1.20 gal 5.11 gal/hr 0.00 gal/nm 0 msl 0 kts
Fri, Jul 28, 2017 EDMA EDMA 12:07 12:07 0 hrs 0.00 hrs 0.00 nm 0.20 gal 120.00 gal/hr 0.00 gal/nm 0 msl 0 kts
Fri, Jul 28, 2017 EDMA EDMA 12:04 12:07 0.05 hrs 0.00 hrs 0.00 nm 0.20 gal 3.87 gal/hr 0.00 gal/nm 0 msl 0 kts
Thu, Jul 27, 2017     11:17 11:28 0.19 hrs 0.00 hrs 0.00 nm 0.00 gal 0.00 gal/hr 0.00 gal/nm 0 msl 0 kts
Mon, Jul 17, 2017 EDMA EDMA 05:50 06:07 0.29 hrs 0.00 hrs 0.00 nm 1.50 gal 5.26 gal/hr 0.00 gal/nm 0 msl 0 kts
Wed, Jul 12, 2017 EDTD EDTD 13:40 13:40 0 hrs 0.00 hrs 0.00 nm 8.90 gal 5340.00 gal/hr 0.00 gal/nm 0 msl 0 kts
Wed, Jul 12, 2017 EDTD EDMA 08:07 09:10 1.04 hrs 0.88 hrs 151.75 nm 13.40 gal 12.95 gal/hr 0.09 gal/nm 0 msl 171 kts
Wed, Jul 12, 2017 EDTD EDTD 08:00 08:02 0.04 hrs 0.00 hrs 0.00 nm 0.00 gal 0.00 gal/hr 0.00 gal/nm 0 msl 0 kts
Fri, Jun 30, 2017 LSZR EDTD 12:51 13:40 0.8 hrs 0.53 hrs 73.54 nm 8.90 gal 11.10 gal/hr 0.12 gal/nm 0 msl 137 kts
Fri, Jun 30, 2017 LSZR LSZR 12:37 12:37 0 hrs 0.00 hrs 0.00 nm 0.00 gal 0.00 gal/hr 0.00 gal/nm 0 msl 0 kts
Fri, Jun 30, 2017 LSZR LSZR 12:35 12:37 0.04 hrs 0.00 hrs 0.00 nm 0.00 gal 0.00 gal/hr 0.00 gal/nm 0 msl 0 kts
Fri, Jun 30, 2017 LSZR LSZR 11:04 12:01 0.94 hrs 0.61 hrs 78.40 nm 10.20 gal 10.91 gal/hr 0.13 gal/nm 0 msl 128 kts
Fri, Jun 30, 2017     11:02 11:03 0.02 hrs 0.00 hrs 0.00 nm 0.00 gal 0.00 gal/hr 0.00 gal/nm 0 msl 0 kts
Fri, Jun 30, 2017 EDTD EDTD 10:36 10:36 0 hrs 0.00 hrs 0.00 nm 25.50 gal 15300.00 gal/hr 0.00 gal/nm 0 msl 0 kts
Fri, Jun 30, 2017 LSZR LSZR 08:54 08:56 0.04 hrs 0.00 hrs 0.00 nm 0.00 gal 0.00 gal/hr 0.00 gal/nm 0 msl 0 kts
Fri, Jun 30, 2017 EDTD LSZR 08:10 08:52 0.69 hrs 0.48 hrs 71.65 nm 8.10 gal 11.82 gal/hr 0.11 gal/nm 0 msl 147 kts
Fri, Jun 30, 2017     07:54 07:55 0.02 hrs 0.00 hrs 0.00 nm 0.10 gal 5.45 gal/hr 0.00 gal/nm 0 msl 0 kts
Tue, Jun 27, 2017     09:16 09:16 0 hrs 0.00 hrs 0.00 nm 0.00 gal 0.00 gal/hr 0.00 gal/nm 0 msl 0 kts
Tue, Jun 27, 2017 LFMV EDTD 08:35 10:36 2 hrs 1.75 hrs 307.60 nm 25.50 gal 12.74 gal/hr 0.08 gal/nm 0 msl 175 kts
Tue, Jun 27, 2017 LFMV LFMV 08:31 08:33 0.04 hrs 0.00 hrs 0.00 nm 0.00 gal 0.00 gal/hr 0.00 gal/nm 0 msl 0 kts
Fri, Jun 23, 2017     09:15 09:16 0.02 hrs 0.00 hrs 0.00 nm 0.00 gal 0.00 gal/hr 0.00 gal/nm 0 msl 0 kts
Fri, Jun 23, 2017 EDTD LFMV 06:40 09:02 2.35 hrs 2.13 hrs 326.09 nm 29.50 gal 12.54 gal/hr 0.09 gal/nm 0 msl 153 kts
Fri, Jun 23, 2017     06:20 06:21 0.02 hrs 0.00 hrs 0.00 nm 0.10 gal 5.45 gal/hr 0.00 gal/nm 0 msl 0 kts
Fri, Jun 23, 2017     06:05 06:06 0.02 hrs 0.00 hrs 0.00 nm 0.00 gal 0.00 gal/hr 0.00 gal/nm 0 msl 0 kts
Wed, Jun 7, 2017 LFMV EDTD 11:38 13:58 2.3 hrs 2.03 hrs 306.04 nm 28.70 gal 12.47 gal/hr 0.09 gal/nm 0 msl 150 kts
Wed, Jun 7, 2017     11:21 11:22 0.02 hrs 0.00 hrs 0.00 nm 0.00 gal 0.00 gal/hr 0.00 gal/nm 0 msl 0 kts
Fri, Jun 2, 2017     14:04 14:05 0.02 hrs 0.00 hrs 0.00 nm 0.10 gal 5.45 gal/hr 0.00 gal/nm 0 msl 0 kts
Fri, Jun 2, 2017 EDTD LFMV 11:35 13:49 2.19 hrs 1.99 hrs 307.12 nm 28.60 gal 13.09 gal/hr 0.09 gal/nm 0 msl 153 kts
Fri, Jun 2, 2017     11:18 11:19 0.02 hrs 0.00 hrs 0.00 nm 0.10 gal 5.45 gal/hr 0.00 gal/nm 0 msl 0 kts
Mon, May 29, 2017 LFHD LFHD 12:33 12:33 0 hrs 0.00 hrs 0.00 nm 26.60 gal 15960.00 gal/hr 0.00 gal/nm 0 msl 0 kts
Mon, May 29, 2017 LFHD EDTD 07:40 09:39 1.95 hrs 1.71 hrs 285.53 nm 25.20 gal 12.91 gal/hr 0.09 gal/nm 0 msl 166 kts
Sun, May 28, 2017 EDTD LFHD 10:29 12:33 2.05 hrs 1.85 hrs 283.22 nm 26.60 gal 12.97 gal/hr 0.09 gal/nm 0 msl 152 kts
Sun, May 28, 2017 EDTD EDTD 10:10 10:12 0.04 hrs 0.00 hrs 0.00 nm 0.10 gal 2.86 gal/hr 0.00 gal/nm 0 msl 0 kts
Sun, May 28, 2017 EDTD EDTD 09:59 10:01 0.04 hrs 0.00 hrs 0.00 nm 0.00 gal 0.00 gal/hr 0.00 gal/nm 0 msl 0 kts
Wed, May 17, 2017 EDLN EDTD 12:08 13:59 1.84 hrs 1.66 hrs 253.46 nm 24.60 gal 13.41 gal/hr 0.10 gal/nm 0 msl 152 kts
Wed, May 17, 2017     12:06 12:07 0.02 hrs 0.00 hrs 0.00 nm 0.00 gal 0.00 gal/hr 0.00 gal/nm 0 msl 0 kts
Wed, May 17, 2017 EDLN EDLN 11:58 11:59 0.04 hrs 0.00 hrs 0.00 nm 0.00 gal 0.00 gal/hr 0.00 gal/nm 0 msl 0 kts
Tue, May 16, 2017 EDTD EDTD 09:07 09:07 0 hrs 0.00 hrs 0.00 nm 34.20 gal 20520.00 gal/hr 0.00 gal/nm 0 msl 0 kts
Mon, May 15, 2017 EDTD EDLN 13:37 15:25 1.77 hrs 1.58 hrs 242.24 nm 22.50 gal 12.72 gal/hr 0.09 gal/nm 0 msl 153 kts
Mon, May 15, 2017     13:11 13:12 0.02 hrs 0.00 hrs 0.00 nm 0.10 gal 5.45 gal/hr 0.00 gal/nm 0 msl 0 kts
Mon, May 15, 2017     12:53 12:54 0.02 hrs 0.00 hrs 0.00 nm 0.00 gal 0.00 gal/hr 0.00 gal/nm 0 msl 0 kts
Sat, Apr 22, 2017 LFBX EDTD 06:20 09:07 2.75 hrs 2.50 hrs 404.73 nm 34.20 gal 12.43 gal/hr 0.08 gal/nm 0 msl 161 kts
Sat, Apr 22, 2017 LFBX LFBX 05:59 06:02 0.07 hrs 0.00 hrs 0.00 nm 0.00 gal 0.00 gal/hr 0.00 gal/nm 0 msl 0 kts
Fri, Apr 21, 2017     14:04 14:05 0.02 hrs 0.00 hrs 0.00 nm 0.00 gal 0.00 gal/hr 0.00 gal/nm 0 msl 0 kts
Fri, Apr 21, 2017 LFCH LFBX 12:56 13:53 0.95 hrs 0.75 hrs 96.17 nm 10.70 gal 11.24 gal/hr 0.11 gal/nm 0 msl 128 kts
Fri, Apr 21, 2017     12:53 12:54 0.02 hrs 0.00 hrs 0.00 nm 0.00 gal 0.00 gal/hr 0.00 gal/nm 0 msl 0 kts
Thu, Apr 20, 2017 LFCH LFCH 13:28 13:30 0.04 hrs 0.00 hrs 0.00 nm 0.10 gal 2.86 gal/hr 0.00 gal/nm 0 msl 0 kts
Thu, Apr 20, 2017 LFEA LFCH 11:06 12:51 1.75 hrs 1.60 hrs 222.18 nm 22.00 gal 12.56 gal/hr 0.10 gal/nm 0 msl 138 kts
Thu, Apr 20, 2017     11:00 11:01 0.02 hrs 0.00 hrs 0.00 nm 0.00 gal 0.00 gal/hr 0.00 gal/nm 0 msl 0 kts
Wed, Apr 19, 2017 LFRM LFEA 12:07 13:12 1.09 hrs 0.90 hrs 153.90 nm 13.90 gal 12.81 gal/hr 0.09 gal/nm 0 msl 170 kts
Wed, Apr 19, 2017 LFRM LFRM 12:00 12:00 0 hrs 0.00 hrs 0.00 nm 0.00 gal 0.00 gal/hr 0.00 gal/nm 0 msl 0 kts
Wed, Apr 19, 2017 LFRM LFRM 11:58 12:00 0.04 hrs 0.00 hrs 0.00 nm 0.00 gal 0.00 gal/hr 0.00 gal/nm 0 msl 0 kts
Wed, Apr 19, 2017 EDTD LFRM 08:57 11:29 2.5 hrs 2.20 hrs 367.39 nm 32.20 gal 12.87 gal/hr 0.09 gal/nm 0 msl 166 kts
Wed, Apr 19, 2017 EDTD EDTD 08:27 08:27 0 hrs 0.00 hrs 0.00 nm 0.00 gal 0.00 gal/hr 0.00 gal/nm 0 msl 0 kts
Wed, Apr 19, 2017 EDTD EDTD 08:27 08:27 0 hrs 0.00 hrs 0.00 nm 0.00 gal 0.00 gal/hr 0.00 gal/nm 0 msl 0 kts
Wed, Apr 19, 2017 EDTD EDTD 08:24 08:27 0.05 hrs 0.00 hrs 0.00 nm 0.00 gal 0.00 gal/hr 0.00 gal/nm 0 msl 0 kts
Fri, Apr 14, 2017 LFHD EDTD 11:55 13:45 1.82 hrs 1.65 hrs 274.92 nm 24.00 gal 13.20 gal/hr 0.09 gal/nm 0 msl 165 kts
Fri, Apr 14, 2017 LFHD LFHD 11:42 11:44 0.04 hrs 0.00 hrs 0.00 nm 0.00 gal 0.00 gal/hr 0.00 gal/nm 0 msl 0 kts
Wed, Apr 12, 2017 EDTD EDTD 14:52 14:52 0 hrs 0.00 hrs 0.00 nm 15.00 gal 9000.00 gal/hr 0.00 gal/nm 0 msl 0 kts
Wed, Apr 12, 2017 EDTD EDTD 14:52 14:52 0 hrs 0.00 hrs 0.00 nm 15.00 gal 9000.00 gal/hr 0.00 gal/nm 0 msl 0 kts
Wed, Apr 12, 2017     12:09 12:10 0.02 hrs 0.00 hrs 0.00 nm 0.00 gal 0.00 gal/hr 0.00 gal/nm 0 msl 0 kts
Wed, Apr 12, 2017 EDTD LFHD 09:36 11:47 2.17 hrs 1.96 hrs 288.11 nm 27.50 gal 12.68 gal/hr 0.10 gal/nm 0 msl 146 kts
Wed, Apr 12, 2017 EDTD EDTD 09:12 09:14 0.05 hrs 0.00 hrs 0.00 nm 0.10 gal 1.94 gal/hr 0.00 gal/nm 0 msl 0 kts
Sun, Apr 9, 2017 EDMA EDTD 13:40 14:52 1.19 hrs 0.97 hrs 145.23 nm 15.00 gal 12.66 gal/hr 0.10 gal/nm 0 msl 149 kts
Sun, Apr 9, 2017     13:37 13:38 0.02 hrs 0.00 hrs 0.00 nm 0.00 gal 0.00 gal/hr 0.00 gal/nm 0 msl 0 kts
Sun, Apr 9, 2017 EDMA EDMA 13:33 13:35 0.04 hrs 0.00 hrs 0.00 nm 0.00 gal 0.00 gal/hr 0.00 gal/nm 0 msl 0 kts
Sun, Apr 9, 2017 EDVM EDMA 10:56 12:59 2.04 hrs 1.86 hrs 288.45 nm 26.60 gal 13.07 gal/hr 0.09 gal/nm 0 msl 154 kts
Sun, Apr 9, 2017     09:45 09:46 0.02 hrs 0.00 hrs 0.00 nm 0.10 gal 5.45 gal/hr 0.00 gal/nm 0 msl 0 kts
Sun, Apr 9, 2017 EDTD EDVM 07:15 09:30 2.24 hrs 1.98 hrs 300.04 nm 27.60 gal 12.35 gal/hr 0.09 gal/nm 0 msl 151 kts
Fri, Apr 7, 2017 EDTD EDTD 16:25 16:25 0 hrs 0.00 hrs 0.00 nm 22.00 gal 13200.00 gal/hr 0.00 gal/nm 0 msl 0 kts
Fri, Apr 7, 2017 EDTD EDTD 13:40 13:42 0.04 hrs 0.00 hrs 0.00 nm 0.10 gal 2.86 gal/hr 0.00 gal/nm 0 msl 0 kts
Fri, Apr 7, 2017     13:31 13:32 0.02 hrs 0.00 hrs 0.00 nm 0.80 gal 43.64 gal/hr 0.00 gal/nm 0 msl 0 kts
Tue, Mar 7, 2017 EDTD EDTD 16:25 16:25 0 hrs 0.00 hrs 0.00 nm 22.00 gal 13200.00 gal/hr 0.00 gal/nm 0 msl 0 kts
Tue, Sep 27, 2016 EDDK EDDK 13:41 13:41 0 hrs 0.00 hrs 0.00 nm 21.80 gal 13080.00 gal/hr 0.00 gal/nm 0 msl 0 kts
Mon, Sep 26, 2016 EDDK EDTD 14:35 16:25 1.8 hrs 1.43 hrs 223.11 nm 22.00 gal 12.21 gal/hr 0.10 gal/nm 0 msl 156 kts
Sun, Sep 25, 2016 EDTD EDTD 14:07 14:07 0 hrs 0.00 hrs 0.00 nm 40.90 gal 24540.00 gal/hr 0.00 gal/nm 0 msl 0 kts
Sun, Sep 25, 2016 EDTD EDDK 11:54 13:41 1.77 hrs 1.55 hrs 259.26 nm 21.80 gal 12.33 gal/hr 0.08 gal/nm 0 msl 166 kts
Sun, Sep 25, 2016     11:36 11:37 0.02 hrs 0.00 hrs 0.00 nm 0.10 gal 5.45 gal/hr 0.00 gal/nm 0 msl 0 kts
Sun, Sep 25, 2016     11:29 11:30 0.02 hrs 0.00 hrs 0.00 nm 0.00 gal 0.00 gal/hr 0.00 gal/nm 0 msl 0 kts
Mon, Sep 5, 2016 LFMV EDTD 10:56 14:07 3.15 hrs 2.96 hrs 420.06 nm 40.90 gal 12.98 gal/hr 0.10 gal/nm 0 msl 141 kts
Mon, Sep 5, 2016     10:53 10:54 0.02 hrs 0.00 hrs 0.00 nm 0.00 gal 0.00 gal/hr 0.00 gal/nm 0 msl 0 kts
Mon, Sep 5, 2016 LFMV LFMV 10:47 10:47 0 hrs 0.00 hrs 0.00 nm 0.00 gal 0.00 gal/hr 0.00 gal/nm 0 msl 0 kts
Mon, Sep 5, 2016 LFMV LFMV 10:45 10:47 0.04 hrs 0.00 hrs 0.00 nm 0.00 gal 0.00 gal/hr 0.00 gal/nm 0 msl 0 kts
Fri, Sep 2, 2016 EDTD LFMV 07:16 09:32 2.25 hrs 2.07 hrs 325.59 nm 28.70 gal 12.75 gal/hr 0.09 gal/nm 0 msl 157 kts
Fri, Sep 2, 2016     07:13 07:14 0.02 hrs 0.00 hrs 0.00 nm 0.10 gal 5.45 gal/hr 0.00 gal/nm 0 msl 0 kts
Fri, Sep 2, 2016     06:49 06:50 0.02 hrs 0.00 hrs 0.00 nm 0.10 gal 5.45 gal/hr 0.00 gal/nm 0 msl 0 kts
Fri, Sep 2, 2016     06:37 06:37 0 hrs 0.00 hrs 0.00 nm 0.00 gal 0.00 gal/hr 0.00 gal/nm 0 msl 0 kts
Fri, Sep 2, 2016     06:36 06:37 0.02 hrs 0.00 hrs 0.00 nm 0.00 gal 0.00 gal/hr 0.00 gal/nm 0 msl 0 kts
Mon, Aug 22, 2016 LFMV EDTD 09:19 11:42 2.35 hrs 2.13 hrs 307.61 nm 29.80 gal 12.67 gal/hr 0.10 gal/nm 0 msl 144 kts
Mon, Aug 22, 2016 LFMV LFMV 09:14 09:14 0 hrs 0.00 hrs 0.00 nm 0.00 gal 0.00 gal/hr 0.00 gal/nm 0 msl 0 kts
Mon, Aug 22, 2016 LFMV LFMV 09:13 09:14 0.04 hrs 0.00 hrs 0.00 nm 0.00 gal 0.00 gal/hr 0.00 gal/nm 0 msl 0 kts
Fri, Aug 19, 2016 EDTD LFMV 07:10 09:24 2.22 hrs 2.01 hrs 313.67 nm 28.50 gal 12.85 gal/hr 0.09 gal/nm 0 msl 155 kts
Fri, Aug 19, 2016     06:52 06:53 0.02 hrs 0.00 hrs 0.00 nm 0.10 gal 5.45 gal/hr 0.00 gal/nm 0 msl 0 kts
Fri, Aug 19, 2016 EDTD EDTD 06:45 06:48 0.05 hrs 0.00 hrs 0.00 nm 0.00 gal 0.00 gal/hr 0.00 gal/nm 0 msl 0 kts
Thu, Aug 18, 2016 EDXW EDTD 14:14 17:09 2.9 hrs 2.61 hrs 432.42 nm 36.30 gal 12.51 gal/hr 0.08 gal/nm 0 msl 165 kts
Thu, Aug 18, 2016 EDXW EDXW 14:06 14:10 0.07 hrs 0.00 hrs 0.00 nm 0.00 gal 0.00 gal/hr 0.00 gal/nm 0 msl 0 kts
Thu, Aug 18, 2016     10:41 10:42 0.02 hrs 0.00 hrs 0.00 nm 0.10 gal 5.45 gal/hr 0.00 gal/nm 0 msl 0 kts
Thu, Aug 18, 2016 EDTD EDTD 09:32 09:32 0 hrs 0.00 hrs 0.00 nm 6.90 gal 4140.00 gal/hr 0.00 gal/nm 0 msl 0 kts
Thu, Aug 18, 2016 EDTD EDTD 09:32 09:32 0 hrs 0.00 hrs 0.00 nm 6.90 gal 4140.00 gal/hr 0.00 gal/nm 0 msl 0 kts
Thu, Aug 18, 2016 EDTD EDXW 07:15 10:27 3.17 hrs 2.94 hrs 434.11 nm 38.40 gal 12.12 gal/hr 0.09 gal/nm 0 msl 147 kts
Thu, Aug 18, 2016 EDTD EDTD 07:08 07:12 0.07 hrs 0.00 hrs 0.00 nm 0.00 gal 0.00 gal/hr 0.00 gal/nm 0 msl 0 kts
Thu, Aug 18, 2016     06:49 06:50 0.02 hrs 0.00 hrs 0.00 nm 0.10 gal 5.45 gal/hr 0.00 gal/nm 0 msl 0 kts
Sat, Jul 9, 2016 LSZR LSZR 07:44 07:44 0 hrs 0.00 hrs 0.00 nm 12.50 gal 7500.00 gal/hr 0.00 gal/nm 0 msl 0 kts
Fri, Jul 8, 2016 LSZR LSZR 15:37 15:37 0 hrs 0.00 hrs 0.00 nm 7.20 gal 4320.00 gal/hr 0.00 gal/nm 0 msl 0 kts
Fri, Jul 8, 2016 LSZR EDTD 08:56 09:32 0.59 hrs 0.38 hrs 57.13 nm 6.90 gal 11.79 gal/hr 0.12 gal/nm 0 msl 148 kts
Fri, Jul 8, 2016     08:45 08:46 0.02 hrs 0.00 hrs 0.00 nm 0.00 gal 0.00 gal/hr 0.00 gal/nm 0 msl 0 kts
Fri, Jul 8, 2016     08:31 08:32 0.02 hrs 0.00 hrs 0.00 nm 0.00 gal 0.00 gal/hr 0.00 gal/nm 0 msl 0 kts
Fri, Jul 8, 2016 LSZR LSZR 06:28 07:44 1.25 hrs 0.72 hrs 96.26 nm 12.50 gal 9.99 gal/hr 0.13 gal/nm 0 msl 133 kts
Thu, Jul 7, 2016 LSZR LSZR 15:37 15:37 0 hrs 0.00 hrs 0.00 nm 7.20 gal 4320.00 gal/hr 0.00 gal/nm 0 msl 0 kts
Thu, Jul 7, 2016 EDTD LSZR 14:58 15:37 0.64 hrs 0.44 hrs 68.14 nm 7.20 gal 11.34 gal/hr 0.11 gal/nm 0 msl 153 kts
Thu, Jul 7, 2016     14:42 14:43 0.02 hrs 0.00 hrs 0.00 nm 0.10 gal 5.45 gal/hr 0.00 gal/nm 0 msl 0 kts
Sun, Jul 3, 2016 EDMA EDTD 14:58 16:08 1.15 hrs 0.92 hrs 140.51 nm 14.40 gal 12.50 gal/hr 0.10 gal/nm 0 msl 152 kts
Sun, Jul 3, 2016 EDMA EDMA 14:51 14:57 0.1 hrs 0.00 hrs 0.00 nm 0.00 gal 0.00 gal/hr 0.00 gal/nm 0 msl 0 kts
Fri, Jul 1, 2016 EDMA EDMA 13:23 13:23 0 hrs 0.00 hrs 0.00 nm 1.00 gal 600.00 gal/hr 0.00 gal/nm 0 msl 0 kts
Fri, Jul 1, 2016     10:07 10:07 0.02 hrs 0.00 hrs 0.00 nm 0.10 gal 5.45 gal/hr 0.00 gal/nm 0 msl 0 kts
Wed, Jun 29, 2016 EDMA EDMA 13:08 13:23 0.25 hrs 0.00 hrs 0.00 nm 1.00 gal 3.97 gal/hr 0.00 gal/nm 0 msl 0 kts
Wed, Jun 29, 2016     11:35 11:36 0.02 hrs 0.00 hrs 0.00 nm 0.00 gal 0.00 gal/hr 0.00 gal/nm 0 msl 0 kts
Wed, Jun 29, 2016 EDMA EDMA 10:09 10:23 0.24 hrs 0.00 hrs 0.00 nm 1.30 gal 5.53 gal/hr 0.00 gal/nm 0 msl 0 kts
Wed, Jun 29, 2016 EDMA EDMA 09:14 09:22 0.14 hrs 0.00 hrs 0.00 nm 0.50 gal 3.70 gal/hr 0.00 gal/nm 0 msl 0 kts
Wed, Jun 29, 2016     08:59 09:00 0.02 hrs 0.00 hrs 0.00 nm 0.00 gal 0.00 gal/hr 0.00 gal/nm 0 msl 0 kts
          103.82 hrs 87.61 hrs 13768.01 nm 1642.60 gal